Time;durP1;ratioP1;P1;durP2;ratioP2;P2;SDS_P1;SDS_P2;PMS_P1;PMS_P2;Temp;Humidity;BMP_temperature;BMP_pressure;BME280_temperature;BME280_humidity;BME280_pressure;Samples;Min_cycle;Max_cycle;Signal;HPM_P1;HPM_P2
2021/05/01 00:12:36;;;;;;;13.40;7.60;;;9.40;99.90;;;;;;3565411;23;20054;-84
2021/05/01 00:18:50;;;;;;;13.65;7.82;;;9.40;99.90;;;;;;3488253;41;20053;-84
2021/05/01 00:21:24;;;;;;;12.80;7.70;;;9.40;99.90;;;;;;3510825;41;20032;-83
2021/05/01 00:27:53;;;;;;;11.32;7.45;;;9.30;99.90;;;;;;3556199;23;20088;-85
2021/05/01 00:30:27;;;;;;;11.80;7.43;;;9.30;99.90;;;;;;3514475;41;20037;-84
2021/05/01 00:32:56;;;;;;;11.60;8.32;;;9.30;99.90;;;;;;3495628;41;20449;-84
2021/05/01 00:35:23;;;;;;;;;;;9.30;99.90;;;;;;3497474;41;20033;-83
2021/05/01 00:37:51;;;;;;;10.63;7.53;;;9.30;99.90;;;;;;3505145;41;19946;-84
2021/05/01 00:40:21;;;;;;;12.30;7.78;;;9.30;99.90;;;;;;3502579;41;20412;-84
2021/05/01 00:42:53;;;;;;;12.90;8.23;;;9.30;99.90;;;;;;3497091;41;20089;-87
2021/05/01 00:45:22;;;;;;;12.43;7.88;;;9.30;99.90;;;;;;3495019;41;20037;-84
2021/05/01 00:47:50;;;;;;;12.13;7.57;;;9.30;99.90;;;;;;3495448;41;20045;-86
2021/05/01 00:53:00;;;;;;;10.85;7.63;;;9.30;99.90;;;;;;3540719;40;20067;-86
2021/05/01 01:07:28;;;;;;;10.98;7.00;;;9.40;99.90;;;;;;3503841;41;20032;-85
2021/05/01 01:09:58;;;;;;;;;;;9.30;99.90;;;;;;3505314;41;20043;-88
2021/05/01 01:12:26;;;;;;;11.27;7.72;;;9.30;99.90;;;;;;3496600;41;19951;-83
2021/05/01 01:14:59;;;;;;;14.30;7.97;;;9.30;99.90;;;;;;3496713;41;20028;-84
2021/05/01 01:17:28;;;;;;;10.50;7.13;;;9.30;99.90;;;;;;3489082;41;20036;-84
2021/05/01 01:20:02;;;;;;;9.90;6.88;;;9.30;99.90;;;;;;3496205;41;20041;-82
2021/05/01 01:22:32;;;;;;;13.25;7.45;;;9.40;99.90;;;;;;3498686;41;20060;-83
2021/05/01 01:25:01;;;;;;;10.68;7.75;;;9.30;99.90;;;;;;3513083;41;20064;-86
2021/05/01 01:31:34;;;;;;;10.98;6.40;;;9.30;99.90;;;;;;3494968;41;20036;-86
2021/05/01 01:34:04;;;;;;;10.00;6.95;;;9.30;99.90;;;;;;3493391;41;20025;-85
2021/05/01 01:36:32;;;;;;;10.55;7.63;;;9.20;99.90;;;;;;3473061;41;20410;-83
2021/05/01 01:39:02;;;;;;;11.05;7.70;;;9.20;99.90;;;;;;3450983;41;20062;-87
2021/05/01 01:41:31;;;;;;;13.02;7.68;;;9.30;99.90;;;;;;3465408;41;20050;-85
2021/05/01 01:44:02;;;;;;;10.68;7.20;;;9.20;99.90;;;;;;3445828;41;20043;-84
2021/05/01 01:46:32;;;;;;;10.63;7.05;;;9.20;99.90;;;;;;3438863;41;20064;-88
2021/05/01 01:49:04;;;;;;;11.40;7.47;;;9.20;99.90;;;;;;3446303;41;20034;-85
2021/05/01 01:51:38;;;;;;;10.18;7.15;;;9.20;99.90;;;;;;3437161;41;20357;-84
2021/05/01 01:54:12;;;;;;;11.07;6.97;;;9.20;99.90;;;;;;3429841;42;20077;-84
2021/05/01 01:56:40;;;;;;;11.98;7.18;;;9.20;99.90;;;;;;3429998;42;20040;-85
2021/05/01 01:59:11;;;;;;;11.32;7.85;;;9.10;99.90;;;;;;3421978;41;20068;-84
2021/05/01 02:01:41;;;;;;;11.18;7.28;;;9.10;99.90;;;;;;3437357;42;20360;-84
2021/05/01 02:04:09;;;;;;;11.50;7.60;;;9.10;99.90;;;;;;3424092;41;20070;-84
2021/05/01 02:10:13;;;;;;;10.82;7.53;;;8.90;99.90;;;;;;3467398;41;20066;-83
2021/05/01 02:12:44;;;;;;;13.05;7.68;;;8.90;99.90;;;;;;3473268;41;20485;-80
2021/05/01 02:15:15;;;;;;;11.48;7.68;;;8.80;99.90;;;;;;3483113;41;20044;-82
2021/05/01 02:18:05;;;;;;;10.35;7.35;;;8.80;99.90;;;;;;3488807;41;20060;-81
2021/05/01 02:20:36;;;;;;;10.75;7.80;;;8.70;99.90;;;;;;3512174;41;20036;-82
2021/05/01 02:23:45;;;;;;;11.60;7.43;;;8.70;99.90;;;;;;3505306;40;20068;-82
2021/05/01 02:26:13;;;;;;;11.23;7.72;;;8.70;99.90;;;;;;3515662;40;20046;-85
2021/05/01 02:28:48;;;;;;;12.18;7.40;;;8.70;99.90;;;;;;3504246;40;20040;-85
2021/05/01 02:31:16;;;;;;;11.88;7.85;;;8.80;99.90;;;;;;3496514;41;20054;-84
2021/05/01 02:33:44;;;;;;;11.20;7.93;;;8.80;99.90;;;;;;3504857;40;20036;-82
2021/05/01 02:37:06;;;;;;;15.80;7.97;;;8.80;99.90;;;;;;3496658;41;20088;-90
2021/05/01 02:39:36;;;;;;;11.43;7.65;;;8.80;99.90;;;;;;3497080;41;20043;-87
2021/05/01 02:42:09;;;;;;;11.35;7.90;;;8.80;99.90;;;;;;3494719;41;20080;-85
2021/05/01 02:44:41;;;;;;;13.57;8.38;;;8.90;99.90;;;;;;3487056;41;20036;-83
2021/05/01 02:47:10;;;;;;;12.98;8.23;;;8.80;99.90;;;;;;3487012;41;20045;-83
2021/05/01 02:49:52;;;;;;;10.38;7.88;;;8.90;99.90;;;;;;3486848;41;20111;-85
2021/05/01 03:13:41;;;;;;;11.57;7.53;;;8.70;99.90;;;;;;3523313;40;20040;-83
2021/05/01 03:23:06;;;;;;;13.73;8.25;;;8.60;99.90;;;;;;3529379;40;20033;-84
2021/05/01 03:25:36;;;;;;;11.18;7.25;;;8.70;99.90;;;;;;3506251;41;20036;-84
2021/05/01 03:28:04;;;;;;;12.52;8.20;;;8.70;99.90;;;;;;3505912;41;20040;-85
2021/05/01 03:31:22;;;;;;;14.57;9.10;;;8.70;99.90;;;;;;3505775;41;20044;-86
2021/05/01 03:34:23;;;;;;;19.40;11.52;;;8.60;99.90;;;;;;3513577;41;20036;-86
2021/05/01 03:36:51;;;;;;;12.70;8.55;;;8.70;99.90;;;;;;3506073;41;20047;-84
2021/05/01 03:42:09;;;;;;;13.70;8.02;;;8.70;99.90;;;;;;3964328;23;20071;-84
2021/05/01 03:48:56;;;;;;;;;;;8.70;99.90;;;;;;3543270;40;20029;-86
2021/05/01 03:51:25;;;;;;;11.15;7.80;;;8.70;99.90;;;;;;3541406;40;19942;-83
2021/05/01 03:53:52;;;;;;;10.68;7.93;;;8.70;99.90;;;;;;3549443;40;20297;-84
2021/05/01 03:56:22;;;;;;;12.93;8.13;;;8.70;99.90;;;;;;3535152;40;20038;-84
2021/05/01 03:58:50;;;;;;;14.05;8.30;;;8.70;99.90;;;;;;3542726;40;20039;-81
2021/05/01 04:01:19;;;;;;;12.75;8.10;;;8.80;99.90;;;;;;3542795;40;20059;-87
2021/05/01 04:18:42;;;;;;;11.57;7.55;;;8.80;99.90;;;;;;3553050;40;20406;-86
2021/05/01 04:21:10;;;;;;;;;;;8.80;99.90;;;;;;3546014;40;20046;-84
2021/05/01 04:23:38;;;;;;;11.52;7.90;;;8.80;99.90;;;;;;3545848;40;19945;-83
2021/05/01 04:26:08;;;;;;;12.32;7.93;;;8.90;99.90;;;;;;3545628;40;20030;-83
2021/05/01 04:28:36;;;;;;;13.77;8.82;;;8.90;99.90;;;;;;3545593;40;20034;-83
2021/05/01 04:31:04;;;;;;;11.10;7.57;;;8.90;99.90;;;;;;3545451;40;20038;-83
2021/05/01 04:33:32;;;;;;;13.38;8.77;;;9.00;99.90;;;;;;3541322;40;20039;-83
2021/05/01 04:36:01;;;;;;;10.43;7.00;;;9.00;99.90;;;;;;3532313;40;20043;-83
2021/05/01 04:38:28;;;;;;;12.98;7.15;;;9.00;99.90;;;;;;3525657;40;20027;-84
2021/05/01 04:40:56;;;;;;;12.68;8.00;;;9.00;99.90;;;;;;3526081;40;20081;-83
2021/05/01 04:43:44;;;;;;;11.30;7.07;;;9.00;99.90;;;;;;3521369;41;20029;-82
2021/05/01 04:50:18;;;;;;;14.45;8.50;;;9.10;99.90;;;;;;3533778;40;20023;-84
2021/05/01 04:59:56;;;;;;;13.27;7.72;;;9.30;99.90;;;;;;3533881;40;20035;-83
2021/05/01 05:13:00;;;;;;;13.20;6.68;;;9.50;99.90;;;;;;3541801;40;20036;-82
2021/05/01 05:15:28;;;;;;;11.70;7.78;;;9.50;99.90;;;;;;3526039;40;20063;-83
2021/05/01 05:17:56;;;;;;;10.45;6.95;;;9.50;99.90;;;;;;3534058;40;20101;-84
2021/05/01 05:20:25;;;;;;;11.48;7.03;;;9.60;99.90;;;;;;3525967;40;20042;-84
2021/05/01 05:23:17;;;;;;;13.60;7.10;;;9.60;99.90;;;;;;3534682;40;20047;-84
2021/05/01 05:25:45;;;;;;;13.80;6.65;;;9.70;99.90;;;;;;3526505;40;20035;-86
2021/05/01 05:28:14;;;;;;;12.85;7.28;;;9.70;99.90;;;;;;3534740;40;20028;-84
2021/05/01 05:30:46;;;;;;;9.43;6.97;;;9.80;99.90;;;;;;3534693;40;20048;-81
2021/05/01 05:33:15;;;;;;;16.20;7.18;;;9.90;99.90;;;;;;3534675;40;20031;-81
2021/05/01 05:35:43;;;;;;;11.90;7.13;;;10.00;99.90;;;;;;3526137;40;20036;-84
2021/05/01 05:38:12;;;;;;;11.30;7.32;;;10.10;99.90;;;;;;3534458;40;20059;-83
2021/05/01 05:40:41;;;;;;;14.43;7.60;;;10.20;99.90;;;;;;3523883;40;20059;-83
2021/05/01 05:43:17;;;;;;;11.25;6.85;;;10.20;99.90;;;;;;3524217;40;20530;-84
2021/05/01 05:45:52;;;;;;;10.35;7.18;;;10.20;99.90;;;;;;3515632;40;20054;-83
2021/05/01 05:48:22;;;;;;;9.63;6.97;;;10.20;99.90;;;;;;3502969;41;20064;-85
2021/05/01 05:50:51;;;;;;;11.45;8.38;;;10.40;99.90;;;;;;3495115;41;20057;-84
2021/05/01 05:53:19;;;;;;;10.30;7.18;;;10.50;99.90;;;;;;3479007;41;20065;-83
2021/05/01 05:55:46;;;;;;;10.25;7.13;;;10.60;99.90;;;;;;3495168;41;20048;-84
2021/05/01 05:58:17;;;;;;;11.13;7.68;;;10.80;99.90;;;;;;3494831;41;20073;-84
2021/05/01 06:00:52;;;;;;;14.30;7.70;;;10.80;99.90;;;;;;3495188;41;20061;-84
2021/05/01 06:03:21;;;;;;;11.88;7.88;;;10.90;99.90;;;;;;3485288;41;20045;-83
2021/05/01 06:05:55;;;;;;;11.77;7.25;;;11.00;99.90;;;;;;3475259;41;20041;-84
2021/05/01 06:08:24;;;;;;;13.68;8.25;;;11.10;99.90;;;;;;3466210;41;20063;-84
2021/05/01 06:10:52;;;;;;;13.20;8.15;;;11.30;99.90;;;;;;3476032;41;20167;-84
2021/05/01 06:13:22;;;;;;;12.50;7.68;;;11.40;99.90;;;;;;3483903;41;20086;-84
2021/05/01 06:16:19;;;;;;;13.88;8.32;;;11.60;99.90;;;;;;3484486;41;20041;-85
2021/05/01 06:18:49;;;;;;;11.73;8.30;;;11.80;99.90;;;;;;3479973;41;20060;-84
2021/05/01 06:21:17;;;;;;;12.13;8.23;;;11.90;99.90;;;;;;3512031;41;20065;-84
2021/05/01 06:23:45;;;;;;;11.63;8.52;;;12.00;99.90;;;;;;3504097;41;20091;-84
2021/05/01 06:26:14;;;;;;;14.23;8.48;;;12.00;99.90;;;;;;3512126;41;20670;-84
2021/05/01 06:28:42;;;;;;;14.20;8.40;;;12.10;99.90;;;;;;3519820;41;20075;-83
2021/05/01 06:31:12;;;;;;;14.18;9.10;;;12.10;99.90;;;;;;3512773;40;20032;-90
2021/05/01 06:36:25;;;;;;;12.75;8.27;;;12.20;99.90;;;;;;3541527;40;20055;-85
2021/05/01 06:42:10;;;;;;;11.77;8.60;;;12.40;99.90;;;;;;3531732;40;20055;-85
2021/05/01 06:45:02;;;;;;;14.38;8.75;;;12.60;99.90;;;;;;3515632;40;20071;-86
2021/05/01 06:47:38;;;;;;;12.23;8.55;;;12.80;99.90;;;;;;3521330;40;20054;-84
2021/05/01 06:50:09;;;;;;;14.60;8.70;;;12.90;99.90;;;;;;3524937;40;20055;-86
2021/05/01 06:52:40;;;;;;;12.90;8.98;;;13.00;99.90;;;;;;3512452;40;20063;-83
2021/05/01 06:55:12;;;;;;;13.27;8.85;;;13.00;99.90;;;;;;3519638;40;20074;-89
2021/05/01 06:57:45;;;;;;;13.57;7.75;;;13.20;99.90;;;;;;3522799;40;20059;-84
2021/05/01 07:00:14;;;;;;;11.55;7.97;;;13.20;99.90;;;;;;3512474;40;20380;-87
2021/05/01 07:02:50;;;;;;;10.93;7.95;;;13.20;99.90;;;;;;3527725;40;20064;-88
2021/05/01 07:05:21;;;;;;;13.75;8.98;;;13.40;99.90;;;;;;3525964;40;20411;-86
2021/05/01 07:08:19;;;;;;;12.70;8.27;;;13.60;99.90;;;;;;3520080;40;20091;-85
2021/05/01 07:10:47;;;;;;;10.90;7.85;;;13.60;99.40;;;;;;3477565;41;20093;-87
2021/05/01 07:17:28;;;;;;;11.27;7.60;;;13.30;99.00;;;;;;4115211;23;20067;-86
2021/05/01 07:24:14;;;;;;;13.48;8.90;;;13.20;98.30;;;;;;3500008;41;20045;-86
2021/05/01 07:42:59;;;;;;;11.43;7.57;;;13.30;96.80;;;;;;3550537;40;20595;-85
2021/05/01 07:45:27;;;;;;;12.65;7.72;;;13.30;97.10;;;;;;3520411;40;20074;-86
2021/05/01 07:48:04;;;;;;;11.30;7.93;;;13.10;97.10;;;;;;3536831;40;20047;-86
2021/05/01 07:50:31;;;;;;;10.73;7.32;;;13.00;97.20;;;;;;3528000;40;20039;-88
2021/05/01 07:57:37;;;;;;;11.07;7.10;;;13.10;97.60;;;;;;3483478;41;20170;-84
2021/05/01 08:00:15;;;;;;;10.48;6.88;;;13.40;96.40;;;;;;3465320;41;20086;-89
2021/05/01 08:02:43;;;;;;;10.25;7.50;;;13.60;95.30;;;;;;3463804;41;20086;-86
2021/05/01 08:08:49;;;;;;;12.18;6.47;;;13.60;93.90;;;;;;563184;50;20255;-83
2021/05/01 08:14:20;;;;;;;10.52;7.13;;;13.40;93.40;;;;;;1431780;23;20039;-86
2021/05/01 08:16:52;;;;;;;11.10;7.43;;;13.50;93.60;;;;;;3532517;40;20042;-85
2021/05/01 08:19:25;;;;;;;10.93;7.25;;;13.80;94.00;;;;;;3543215;23;20075;31
2021/05/01 08:25:57;;;;;;;10.25;6.38;;;14.40;92.70;;;;;;3526830;40;20071;-87
2021/05/01 08:28:25;;;;;;;10.70;7.00;;;14.70;91.40;;;;;;3514137;40;20067;-85
2021/05/01 08:31:11;;;;;;;14.05;6.60;;;14.90;88.90;;;;;;3530834;40;20059;-85
2021/05/01 08:37:29;;;;;;;10.25;7.22;;;14.50;88.40;;;;;;3491881;41;20385;-87
2021/05/01 08:39:57;;;;;;;11.27;6.95;;;14.50;88.60;;;;;;3489657;41;20092;-85
2021/05/01 08:43:02;;;;;;;11.13;6.05;;;14.70;88.00;;;;;;3495110;41;20068;-87
2021/05/01 08:46:01;;;;;;;10.77;6.50;;;14.90;85.70;;;;;;3491263;41;20089;-85
2021/05/01 08:49:25;;;;;;;10.52;6.40;;;15.30;84.50;;;;;;3479848;41;20061;-88
2021/05/01 08:51:53;;;;;;;10.02;6.38;;;15.60;82.00;;;;;;3464173;41;20304;-85
2021/05/01 08:54:21;;;;;;;12.48;7.32;;;15.90;79.00;;;;;;3460438;41;20422;-88
2021/05/01 08:56:49;;;;;;;8.63;5.90;;;16.20;76.80;;;;;;3467365;41;20618;-89
2021/05/01 08:59:17;;;;;;;8.10;5.47;;;16.30;74.10;;;;;;3475111;41;20097;-88
2021/05/01 09:01:51;;;;;;;9.20;6.45;;;16.10;74.00;;;;;;3467965;41;20085;-88
2021/05/01 09:04:19;;;;;;;9.43;6.28;;;16.00;74.50;;;;;;3468647;41;20074;-87
2021/05/01 09:06:47;;;;;;;12.13;6.80;;;15.90;75.00;;;;;;3476234;41;20102;-86
2021/05/01 09:09:17;;;;;;;10.05;6.80;;;16.00;75.60;;;;;;3474589;41;20082;-86
2021/05/01 09:11:48;;;;;;;10.45;6.88;;;16.00;74.40;;;;;;3483209;41;20466;-85
2021/05/01 09:14:22;;;;;;;14.48;7.55;;;16.30;73.50;;;;;;3485738;41;20085;-86
2021/05/01 09:17:04;;;;;;;10.00;6.22;;;16.50;73.10;;;;;;3489864;41;20070;-85
2021/05/01 09:19:36;;;;;;;10.13;6.63;;;16.80;72.70;;;;;;3490734;41;20065;-84
2021/05/01 09:22:17;;;;;;;10.32;6.63;;;17.10;71.20;;;;;;3477649;41;20049;-82
2021/05/01 09:25:21;;;;;;;10.43;7.07;;;17.40;69.50;;;;;;3487878;40;20056;-84
2021/05/01 09:28:22;;;;;;;9.23;6.45;;;17.70;67.90;;;;;;3505782;40;20044;-86
2021/05/01 09:31:19;;;;;;;11.43;7.32;;;17.90;66.30;;;;;;3518140;40;20092;-85
2021/05/01 09:33:49;;;;;;;10.20;6.20;;;18.10;65.90;;;;;;3509034;40;20104;-85
2021/05/01 09:36:28;;;;;;;8.23;6.68;;;18.30;63.50;;;;;;3508949;40;20375;-84
2021/05/01 09:39:10;;;;;;;7.47;5.88;;;18.30;62.20;;;;;;3492283;40;20067;-87
2021/05/01 09:41:42;;;;;;;9.15;6.00;;;18.10;61.70;;;;;;3515691;40;20080;-86
2021/05/01 09:44:15;;;;;;;13.10;6.32;;;17.90;62.60;;;;;;3507193;40;20294;-86
2021/05/01 09:46:47;;;;;;;9.05;6.50;;;17.70;63.60;;;;;;3499285;40;20059;-85
2021/05/01 09:49:21;;;;;;;9.02;6.13;;;17.50;63.00;;;;;;3501709;41;20072;-90
2021/05/01 09:51:56;;;;;;;8.00;5.53;;;17.50;62.80;;;;;;3506402;40;20080;-86
2021/05/01 09:54:28;;;;;;;10.57;5.88;;;17.60;63.60;;;;;;3507106;40;20411;-85
2021/05/01 09:56:57;;;;;;;9.18;5.90;;;17.70;62.60;;;;;;3504970;40;20396;-85
2021/05/01 09:59:38;;;;;;;9.35;5.35;;;17.90;62.00;;;;;;3521699;40;20079;-84
2021/05/01 10:02:13;;;;;;;8.63;5.00;;;18.60;60.90;;;;;;3503356;40;20075;-82
2021/05/01 10:05:04;;;;;;;8.35;5.10;;;19.50;58.00;;;;;;3486948;40;20083;-83
2021/05/01 10:07:33;;;;;;;7.82;4.88;;;20.10;55.30;;;;;;3519402;40;20075;-84
2021/05/01 10:10:05;;;;;;;11.30;5.70;;;20.50;54.70;;;;;;3513121;40;20091;-82
2021/05/01 10:12:37;;;;;;;6.82;4.70;;;20.70;53.60;;;;;;3502970;40;20087;-82
2021/05/01 10:15:31;;;;;;;8.15;5.35;;;20.80;53.00;;;;;;3505128;40;20083;-84
2021/05/01 10:18:12;;;;;;;7.82;4.90;;;21.00;52.70;;;;;;3504511;40;20329;-83
2021/05/01 10:20:45;;;;;;;7.78;4.88;;;20.90;52.00;;;;;;3505255;40;20058;-82
2021/05/01 10:27:34;;;;;;;6.97;4.85;;;20.90;51.00;;;;;;3518921;40;20415;-83
2021/05/01 10:30:10;;;;;;;12.70;6.35;;;20.80;51.70;;;;;;3506323;40;20096;-84
2021/05/01 10:32:49;;;;;;;9.50;5.65;;;20.90;51.50;;;;;;3512830;40;20076;-83
2021/05/01 10:38:43;;;;;;;5.65;4.00;;;20.70;51.40;;;;;;3513421;40;20080;-82
2021/05/01 10:41:19;;;;;;;7.75;4.00;;;22.00;50.60;;;;;;3513697;40;20071;-83
2021/05/01 10:43:58;;;;;;;6.38;4.22;;;23.30;47.90;;;;;;3515455;40;20072;-83
2021/05/01 10:46:32;;;;;;;9.07;4.55;;;24.30;46.20;;;;;;3502606;40;20087;-82
2021/05/01 10:49:05;;;;;;;7.38;4.97;;;24.80;43.70;;;;;;3525243;40;20108;-82
2021/05/01 10:51:40;;;;;;;6.88;4.57;;;24.50;43.40;;;;;;3479913;41;20096;-84
2021/05/01 10:54:14;;;;;;;5.47;4.40;;;23.90;44.00;;;;;;3506459;40;20064;-83
2021/05/01 10:56:46;;;;;;;9.57;5.28;;;23.40;44.80;;;;;;3521837;40;20324;-81
2021/05/01 10:59:17;;;;;;;11.02;6.13;;;22.90;45.20;;;;;;3512653;40;20096;-82
2021/05/01 11:01:48;;;;;;;8.32;5.90;;;22.30;45.60;;;;;;3513526;40;20076;-83
2021/05/01 11:04:19;;;;;;;7.63;5.30;;;21.60;46.90;;;;;;3520996;40;20091;-82
2021/05/01 11:06:52;;;;;;;7.28;5.50;;;20.80;48.50;;;;;;3507754;40;20079;-84
2021/05/01 11:09:32;;;;;;;7.78;5.57;;;20.40;49.50;;;;;;3505112;40;20075;-83
2021/05/01 11:12:09;;;;;;;9.25;5.78;;;20.20;50.10;;;;;;3496871;40;20095;-85
2021/05/01 11:14:53;;;;;;;8.98;6.40;;;20.20;50.30;;;;;;3510700;41;20072;-83
2021/05/01 11:17:37;;;;;;;9.48;5.93;;;20.10;50.30;;;;;;3480839;41;20085;-81
2021/05/01 11:20:11;;;;;;;9.95;5.15;;;20.00;50.70;;;;;;3512853;40;20092;-83
2021/05/01 11:22:41;;;;;;;9.00;5.57;;;19.70;51.30;;;;;;3519756;40;20079;-83
2021/05/01 11:28:32;;;;;;;10.13;5.50;;;19.30;52.00;;;;;;3525834;40;20095;-82
2021/05/01 11:31:00;;;;;;;9.30;6.20;;;19.10;52.60;;;;;;3522100;40;20063;-84
2021/05/01 11:33:27;;;;;;;7.97;5.60;;;19.00;52.90;;;;;;3512338;40;20321;-84
2021/05/01 11:35:57;;;;;;;8.70;6.35;;;18.80;53.00;;;;;;3523335;40;20096;-83
2021/05/01 11:38:29;;;;;;;10.73;6.30;;;18.80;53.40;;;;;;3514017;40;20087;-84
2021/05/01 11:40:58;;;;;;;8.57;5.93;;;18.70;53.50;;;;;;3522543;40;20186;-84
2021/05/01 11:43:49;;;;;;;11.98;7.18;;;18.60;53.60;;;;;;3522226;40;20489;-87
2021/05/01 11:49:59;;;;;;;8.05;5.68;;;18.60;53.90;;;;;;3529218;40;20115;-82
2021/05/01 11:55:59;;;;;;;9.70;6.65;;;18.70;53.30;;;;;;3502355;40;20081;-82
2021/05/01 11:58:33;;;;;;;8.65;5.45;;;18.50;53.50;;;;;;3509222;40;20086;-82
2021/05/01 12:01:23;;;;;;;10.63;6.50;;;18.40;53.80;;;;;;3521140;40;20227;-83
2021/05/01 12:03:59;;;;;;;9.38;5.88;;;18.40;53.60;;;;;;3513521;40;20511;-84
2021/05/01 12:06:39;;;;;;;8.93;6.10;;;18.50;53.70;;;;;;3510138;41;20327;-84
2021/05/01 12:09:14;;;;;;;9.77;5.78;;;18.50;53.10;;;;;;3512910;40;20079;-83
2021/05/01 12:11:46;;;;;;;13.02;5.97;;;18.60;53.10;;;;;;3520845;40;20126;-83
2021/05/01 12:14:16;;;;;;;10.13;5.95;;;18.70;52.90;;;;;;3512333;40;20094;-84
2021/05/01 12:16:45;;;;;;;10.20;6.28;;;18.80;52.70;;;;;;3512292;40;20067;-85
2021/05/01 12:19:23;;;;;;;9.55;6.35;;;18.80;52.70;;;;;;3519371;40;20062;-84
2021/05/01 12:21:55;;;;;;;11.25;6.60;;;18.80;52.60;;;;;;3507047;40;20378;-85
2021/05/01 12:24:32;;;;;;;8.27;5.38;;;19.00;52.50;;;;;;3519712;40;20076;-84
2021/05/01 12:27:01;;;;;;;9.38;5.85;;;18.90;52.50;;;;;;3502531;40;20137;-83
2021/05/01 12:29:31;;;;;;;9.00;6.10;;;18.90;52.80;;;;;;3502287;40;20103;-86
2021/05/01 12:32:05;;;;;;;10.35;5.93;;;18.80;52.70;;;;;;3505246;40;20048;-85
2021/05/01 12:34:58;;;;;;;6.88;4.68;;;18.80;52.60;;;;;;3514554;40;20071;-83
2021/05/01 12:37:28;;;;;;;8.93;5.65;;;19.00;52.30;;;;;;3523022;40;20090;-84
2021/05/01 12:40:06;;;;;;;8.18;5.45;;;19.20;52.00;;;;;;3512842;40;20107;-82
2021/05/01 12:42:35;;;;;;;7.22;5.32;;;19.30;51.40;;;;;;3504446;40;20120;-85
2021/05/01 12:45:33;;;;;;;10.02;5.07;;;19.40;51.10;;;;;;3506011;40;20124;-83
2021/05/01 12:48:00;;;;;;;7.25;5.35;;;19.40;50.70;;;;;;3527771;40;20111;-84
2021/05/01 12:50:30;;;;;;;9.95;5.43;;;19.40;50.60;;;;;;3508117;40;20072;-83
2021/05/01 12:53:28;;;;;;;6.53;4.85;;;19.40;50.30;;;;;;3507508;40;20075;-84
2021/05/01 12:56:21;;;;;;;9.80;5.55;;;19.40;50.50;;;;;;3515784;40;20091;-84
2021/05/01 12:59:27;;;;;;;7.25;5.00;;;19.60;49.90;;;;;;3512193;40;20091;-83
2021/05/01 13:02:16;;;;;;;9.07;5.20;;;20.10;49.60;;;;;;3508088;40;20063;-84
2021/05/01 13:04:46;;;;;;;6.95;4.65;;;21.00;47.90;;;;;;3513018;40;20103;-83
2021/05/01 13:07:15;;;;;;;7.18;4.75;;;22.00;46.80;;;;;;3513234;40;20102;-84
2021/05/01 13:09:49;;;;;;;7.80;4.82;;;22.80;45.00;;;;;;3504928;40;20091;-84
2021/05/01 13:12:25;;;;;;;6.05;4.63;;;23.50;43.20;;;;;;3506162;40;20072;-83
2021/05/01 13:15:04;;;;;;;8.20;5.00;;;23.70;42.50;;;;;;3508374;40;20099;-82
2021/05/01 13:17:37;;;;;;;6.28;3.80;;;23.30;42.10;;;;;;3515311;40;20167;-82
2021/05/01 13:20:17;;;;;;;6.53;4.90;;;22.80;43.40;;;;;;3497626;40;20403;-81
2021/05/01 13:22:49;;;;;;;5.97;4.30;;;22.60;44.00;;;;;;3529639;40;20067;-83
2021/05/01 13:25:25;;;;;;;9.02;4.68;;;22.30;44.30;;;;;;3514073;40;20092;-82
2021/05/01 13:27:55;;;;;;;7.63;4.85;;;22.10;45.00;;;;;;3531694;40;20083;-84
2021/05/01 13:30:26;;;;;;;7.45;4.78;;;21.70;45.40;;;;;;3508956;40;20079;-84
2021/05/01 13:32:55;;;;;;;5.97;4.85;;;21.50;45.70;;;;;;3516822;40;20407;-84
2021/05/01 13:35:26;;;;;;;6.30;4.97;;;21.50;45.60;;;;;;3516597;40;20091;-84
2021/05/01 13:37:54;;;;;;;7.15;4.90;;;21.70;45.10;;;;;;3532535;40;20071;-83
2021/05/01 13:43:16;;;;;;;6.65;4.22;;;22.30;43.90;;;;;;3525733;40;20075;-82
2021/05/01 13:45:50;;;;;;;6.10;4.28;;;22.40;44.00;;;;;;3506540;40;20329;-84
2021/05/01 13:48:19;;;;;;;6.50;4.97;;;22.40;43.80;;;;;;3498643;40;20071;-83
2021/05/01 13:50:49;;;;;;;8.05;5.07;;;22.30;43.80;;;;;;3512962;40;20091;-82
2021/05/01 13:53:22;;;;;;;5.78;4.53;;;22.00;44.70;;;;;;3520788;40;20076;-85
2021/05/01 13:55:51;;;;;;;6.85;3.92;;;22.00;44.00;;;;;;3496905;40;20087;-83
2021/05/01 13:58:20;;;;;;;;;;;22.10;44.00;;;;;;3513321;40;20091;-81
2021/05/01 14:00:50;;;;;;;7.25;4.00;;;22.20;44.00;;;;;;3512779;40;20283;-81
2021/05/01 14:03:23;;;;;;;5.60;4.35;;;22.30;44.00;;;;;;3512144;40;20092;-83
2021/05/01 14:05:52;;;;;;;5.63;4.10;;;22.50;43.60;;;;;;3504704;40;20080;-81
2021/05/01 14:08:20;;;;;;;7.47;4.78;;;22.20;44.00;;;;;;3498144;40;20079;-85
2021/05/01 14:10:51;;;;;;;7.28;5.03;;;21.40;45.00;;;;;;3510380;40;20439;-82
2021/05/01 14:13:20;;;;;;;10.15;4.43;;;21.00;45.70;;;;;;3484043;41;20388;-84
2021/05/01 14:15:52;;;;;;;7.47;4.38;;;20.80;46.70;;;;;;3512656;40;20095;-82
2021/05/01 14:18:23;;;;;;;7.13;4.60;;;21.00;46.40;;;;;;3503061;41;20316;-83
2021/05/01 14:20:53;;;;;;;6.82;4.10;;;21.20;46.20;;;;;;3505438;40;20120;-81
2021/05/01 14:23:22;;;;;;;7.22;4.57;;;21.30;45.40;;;;;;3500435;41;20666;-83
2021/05/01 14:25:52;;;;;;;8.98;5.70;;;21.30;45.70;;;;;;3485551;41;20569;-83
2021/05/01 14:28:27;;;;;;;7.80;5.15;;;21.10;46.30;;;;;;3493083;41;20115;-83
2021/05/01 14:31:08;;;;;;;6.38;4.88;;;21.00;46.80;;;;;;3497726;41;20096;-83
2021/05/01 14:33:37;;;;;;;9.23;5.38;;;20.80;47.10;;;;;;3500851;41;20076;-82
2021/05/01 14:36:07;;;;;;;6.30;4.68;;;20.70;47.20;;;;;;3495162;41;20212;-83
2021/05/01 14:38:37;;;;;;;6.10;4.55;;;20.50;47.50;;;;;;3489918;41;20068;-83
2021/05/01 14:41:06;;;;;;;7.53;4.80;;;20.20;47.60;;;;;;3486295;41;20124;-83
2021/05/01 14:43:38;;;;;;;7.28;4.35;;;20.00;48.10;;;;;;3492207;40;20083;-85
2021/05/01 14:46:22;;;;;;;13.50;5.63;;;19.80;48.20;;;;;;3479746;41;20100;-81
2021/05/01 14:49:09;;;;;;;10.82;4.80;;;19.70;48.20;;;;;;3492889;41;20103;-85
2021/05/01 14:51:41;;;;;;;7.60;4.40;;;19.60;48.30;;;;;;3503149;41;20396;-83
2021/05/01 14:54:19;;;;;;;8.13;4.65;;;19.40;48.00;;;;;;3502697;41;20072;-82
2021/05/01 14:57:04;;;;;;;6.10;4.60;;;19.50;48.10;;;;;;3510459;40;20072;-86
2021/05/01 14:59:41;;;;;;;8.32;4.53;;;19.80;47.90;;;;;;3474242;41;20082;-85
2021/05/01 15:02:29;;;;;;;9.15;4.13;;;19.80;48.00;;;;;;3466815;41;20065;-83
2021/05/01 15:05:05;;;;;;;8.70;3.75;;;19.90;48.20;;;;;;3466358;41;20069;-81
2021/05/01 15:07:36;;;;;;;6.20;3.90;;;20.10;48.10;;;;;;3481260;41;20089;-82
2021/05/01 15:10:10;;;;;;;6.25;4.40;;;20.00;47.90;;;;;;3473393;41;20097;-83
2021/05/01 15:12:58;;;;;;;8.80;4.70;;;20.20;47.90;;;;;;3481726;41;20066;-81
2021/05/01 15:15:41;;;;;;;7.15;4.38;;;21.00;46.80;;;;;;3481516;41;20049;-80
2021/05/01 15:18:24;;;;;;;6.18;3.90;;;21.70;45.60;;;;;;3467726;41;20495;-80
2021/05/01 15:20:53;;;;;;;6.53;4.20;;;21.90;44.20;;;;;;3478724;41;20137;-82
2021/05/01 15:23:24;;;;;;;8.10;4.22;;;21.80;44.00;;;;;;3467701;41;20097;-84
2021/05/01 15:25:53;;;;;;;6.60;4.25;;;21.40;44.90;;;;;;3452599;41;20101;-82
2021/05/01 15:28:28;;;;;;;6.82;4.28;;;21.00;45.70;;;;;;3477308;41;20066;-84
2021/05/01 15:30:57;;;;;;;7.13;4.28;;;20.50;46.50;;;;;;3492875;41;20084;-85
2021/05/01 15:33:27;;;;;;;8.02;4.20;;;20.20;47.30;;;;;;3498825;41;20077;-83
2021/05/01 15:35:56;;;;;;;7.85;3.83;;;20.00;47.60;;;;;;3488945;41;20081;-84
2021/05/01 15:38:28;;;;;;;4.93;3.60;;;19.90;47.90;;;;;;3488498;41;20092;-84
2021/05/01 15:40:57;;;;;;;6.57;4.30;;;19.90;47.90;;;;;;3484050;41;20060;-82
2021/05/01 15:43:25;;;;;;;5.47;3.95;;;19.90;47.80;;;;;;3495654;41;20113;-82
2021/05/01 15:46:19;;;;;;;6.10;4.20;;;19.90;48.20;;;;;;3491530;41;20694;-81
2021/05/01 15:48:48;;;;;;;5.75;4.10;;;19.90;48.00;;;;;;3494338;41;20104;-83
2021/05/01 15:51:17;;;;;;;7.63;4.22;;;19.80;48.30;;;;;;3495053;41;20120;-82
2021/05/01 15:53:44;;;;;;;;;;;19.70;48.60;;;;;;3487102;41;20084;-82
2021/05/01 15:56:21;;;;;;;6.65;3.88;;;19.70;48.20;;;;;;3478376;41;19983;-81
2021/05/01 15:58:52;;;;;;;;;;;19.70;47.90;;;;;;3494089;41;20080;-83
2021/05/01 16:01:21;;;;;;;6.10;4.07;;;19.50;48.50;;;;;;3500072;41;20262;-83
2021/05/01 16:03:50;;;;;;;6.38;3.83;;;19.40;48.50;;;;;;3501405;41;20096;-81
2021/05/01 16:06:21;;;;;;;7.13;4.10;;;19.30;48.50;;;;;;3496394;41;20092;-83
2021/05/01 16:08:49;;;;;;;7.97;4.45;;;19.20;48.40;;;;;;3496398;41;20088;-84
2021/05/01 16:11:19;;;;;;;6.30;4.50;;;18.90;49.00;;;;;;3496688;40;20088;-84
2021/05/01 16:13:51;;;;;;;8.05;4.03;;;18.70;49.20;;;;;;3488268;41;20072;-83
2021/05/01 16:16:19;;;;;;;9.73;4.30;;;18.50;50.20;;;;;;3496041;41;20099;-83
2021/05/01 16:18:48;;;;;;;8.48;4.53;;;18.40;51.10;;;;;;3496167;41;20072;-84
2021/05/01 16:21:16;;;;;;;6.47;4.18;;;18.30;51.80;;;;;;3487314;41;20175;-83
2021/05/01 16:23:43;;;;;;;6.45;4.60;;;18.20;52.20;;;;;;3504500;40;20076;-86